Time;durP1;ratioP1;P1;durP2;ratioP2;P2;SDS_P1;SDS_P2;PMS_P1;PMS_P2;Temp;Humidity;BMP_temperature;BMP_pressure;BME280_temperature;BME280_humidity;BME280_pressure;Samples;Min_cycle;Max_cycle;Signal;HPM_P1;HPM_P2
2023/07/29 00:01:35;;;;;;;1.75;1.00;;;16.00;99.90;;;;;;4961531;28;20030;-79
2023/07/29 00:04:00;;;;;;;1.83;1.08;;;16.00;99.90;;;;;;4957965;28;20027;-78
2023/07/29 00:06:26;;;;;;;4.15;1.10;;;16.00;99.90;;;;;;4955386;28;20033;-78
2023/07/29 00:08:52;;;;;;;2.35;1.40;;;15.90;99.90;;;;;;4972949;28;20437;-77
2023/07/29 00:11:18;;;;;;;1.27;0.80;;;15.90;99.90;;;;;;4956325;28;20026;-78
2023/07/29 00:13:44;;;;;;;1.02;0.93;;;15.90;99.90;;;;;;4955975;28;20504;-78
2023/07/29 00:16:10;;;;;;;0.52;0.52;;;15.80;99.90;;;;;;4955831;28;20037;-78
2023/07/29 00:18:35;;;;;;;0.60;0.60;;;15.80;99.90;;;;;;4955646;28;20480;-78
2023/07/29 00:21:01;;;;;;;5.07;1.55;;;15.90;99.90;;;;;;4955485;28;20031;-78
2023/07/29 00:23:27;;;;;;;1.77;1.15;;;15.90;99.90;;;;;;4972750;28;20034;-78
2023/07/29 00:25:53;;;;;;;0.90;0.73;;;16.00;99.90;;;;;;4955545;28;20038;-77
2023/07/29 00:28:18;;;;;;;0.70;0.70;;;16.00;99.90;;;;;;4955293;28;20579;-77
2023/07/29 00:30:44;;;;;;;0.88;0.80;;;16.10;99.90;;;;;;4973135;28;20054;-77
2023/07/29 00:33:10;;;;;;;0.80;0.70;;;16.10;99.90;;;;;;4955536;28;20153;-77
2023/07/29 00:35:35;;;;;;;1.10;1.10;;;16.20;99.90;;;;;;4955130;28;20085;-78
2023/07/29 00:38:01;;;;;;;2.05;1.00;;;16.10;99.90;;;;;;4955242;28;20491;-78
2023/07/29 00:40:28;;;;;;;1.40;1.30;;;16.10;99.90;;;;;;4972505;28;20058;-77
2023/07/29 00:42:54;;;;;;;1.48;1.17;;;16.20;99.90;;;;;;4972518;28;20031;-78
2023/07/29 00:45:20;;;;;;;6.88;1.23;;;16.20;99.90;;;;;;4954996;28;20122;-77
2023/07/29 00:47:46;;;;;;;1.02;0.90;;;16.20;99.90;;;;;;4954932;28;20480;-78
2023/07/29 00:50:15;;;;;;;1.73;1.10;;;16.20;99.90;;;;;;4972549;28;20491;-77
2023/07/29 00:52:41;;;;;;;1.45;0.95;;;16.30;99.90;;;;;;4956268;28;20495;-77
2023/07/29 00:55:08;;;;;;;2.30;1.00;;;16.30;99.90;;;;;;4956012;28;20109;-78
2023/07/29 00:57:34;;;;;;;3.10;0.80;;;16.30;99.90;;;;;;4973251;28;20030;-77
2023/07/29 01:00:01;;;;;;;0.90;0.85;;;16.40;99.90;;;;;;4954969;28;20090;-78
2023/07/29 01:02:27;;;;;;;1.50;1.40;;;16.30;99.90;;;;;;4954662;28;20054;-77
2023/07/29 01:04:55;;;;;;;1.38;0.77;;;16.40;99.90;;;;;;4972267;28;20155;-78
2023/07/29 01:07:43;;;;;;;1.30;0.85;;;16.40;99.90;;;;;;4954655;28;20023;-78
2023/07/29 01:10:49;;;;;;;0.95;0.93;;;16.40;99.90;;;;;;4954736;28;20019;-78
2023/07/29 01:13:44;;;;;;;0.93;0.93;;;16.40;99.90;;;;;;4954719;28;20029;-77
2023/07/29 01:16:43;;;;;;;1.58;0.90;;;16.40;99.90;;;;;;4954567;28;20029;-78
2023/07/29 01:19:34;;;;;;;0.98;0.98;;;16.30;99.90;;;;;;4968166;28;20047;-78
2023/07/29 01:22:01;;;;;;;1.02;1.02;;;16.40;99.90;;;;;;4971687;28;20026;-78
2023/07/29 01:24:26;;;;;;;1.35;0.98;;;16.50;99.90;;;;;;4954271;28;20499;-78
2023/07/29 01:26:52;;;;;;;0.73;0.73;;;16.50;99.90;;;;;;4971837;28;20027;-78
2023/07/29 01:29:17;;;;;;;0.82;0.82;;;16.50;99.90;;;;;;4954264;28;20231;-78
2023/07/29 01:31:47;;;;;;;5.63;0.82;;;16.50;99.90;;;;;;4954514;28;20554;-78
2023/07/29 01:34:15;;;;;;;0.80;0.80;;;16.40;99.90;;;;;;4954148;28;20031;-78
2023/07/29 01:36:42;;;;;;;5.60;1.00;;;16.50;99.90;;;;;;4953634;28;20045;-77
2023/07/29 01:39:11;;;;;;;1.10;0.73;;;16.90;99.90;;;;;;4953858;28;20070;-78
2023/07/29 01:41:37;;;;;;;0.85;0.85;;;16.50;99.90;;;;;;4953819;28;20054;-78
2023/07/29 01:44:03;;;;;;;3.33;0.80;;;16.60;99.90;;;;;;4953949;28;20491;-78
2023/07/29 01:46:29;;;;;;;1.85;1.73;;;16.50;99.90;;;;;;4953931;28;20030;-78
2023/07/29 01:48:55;;;;;;;0.90;0.90;;;16.50;99.90;;;;;;4971439;28;20113;-78
2023/07/29 01:51:21;;;;;;;0.95;0.85;;;16.50;99.90;;;;;;4971161;28;20027;-77
2023/07/29 01:53:46;;;;;;;1.52;1.02;;;16.40;99.90;;;;;;4971032;28;20460;-77
2023/07/29 01:56:12;;;;;;;1.35;0.82;;;16.40;99.90;;;;;;4970982;28;20049;-78
2023/07/29 01:58:38;;;;;;;1.83;0.68;;;16.40;99.90;;;;;;4970914;28;20127;-77
2023/07/29 02:01:03;;;;;;;2.55;1.08;;;16.50;99.90;;;;;;4953762;28;20031;-78
2023/07/29 02:03:29;;;;;;;2.35;0.90;;;16.50;99.90;;;;;;4953563;28;20031;-78
2023/07/29 02:05:55;;;;;;;1.50;0.68;;;16.40;99.90;;;;;;4970030;28;20039;-77
2023/07/29 02:08:20;;;;;;;2.08;1.38;;;16.50;99.90;;;;;;4953584;28;20031;-78
2023/07/29 02:10:46;;;;;;;1.08;1.05;;;16.50;99.90;;;;;;4953491;28;20373;-78
2023/07/29 02:13:12;;;;;;;1.33;1.05;;;16.50;99.90;;;;;;4970644;28;20062;-78
2023/07/29 02:15:38;;;;;;;1.10;0.95;;;16.50;99.90;;;;;;4953505;28;20361;-78
2023/07/29 02:18:03;;;;;;;1.13;0.80;;;16.50;99.90;;;;;;4970606;28;20116;-77
2023/07/29 02:20:29;;;;;;;2.35;0.93;;;16.50;99.90;;;;;;4952946;28;20039;-77
2023/07/29 02:22:55;;;;;;;1.10;1.00;;;16.60;99.90;;;;;;4953685;28;20420;-78
2023/07/29 02:25:20;;;;;;;1.40;1.10;;;16.50;99.90;;;;;;4953383;28;20034;-78
2023/07/29 02:27:46;;;;;;;1.25;1.15;;;16.50;99.90;;;;;;4953435;28;20118;-78
2023/07/29 02:30:12;;;;;;;7.15;1.77;;;16.40;99.90;;;;;;4952862;28;20046;-78
2023/07/29 02:32:38;;;;;;;2.38;1.33;;;16.40;99.90;;;;;;4970319;28;20396;-78
2023/07/29 02:35:04;;;;;;;2.70;1.42;;;16.30;99.90;;;;;;4970574;28;20023;-78
2023/07/29 02:37:30;;;;;;;0.73;0.73;;;16.30;99.90;;;;;;4970335;28;20065;-78
2023/07/29 02:39:56;;;;;;;2.63;1.10;;;16.40;99.90;;;;;;4970431;28;20042;-78
2023/07/29 02:42:21;;;;;;;1.55;1.02;;;16.40;99.90;;;;;;4953121;28;20458;-78
2023/07/29 02:44:47;;;;;;;1.42;0.93;;;16.40;99.90;;;;;;4970305;28;20030;-78
2023/07/29 02:47:12;;;;;;;1.45;0.90;;;16.40;99.90;;;;;;4952990;28;20031;-78
2023/07/29 02:49:38;;;;;;;0.80;0.80;;;16.50;99.90;;;;;;4970371;28;20069;-77
2023/07/29 02:52:04;;;;;;;2.78;1.20;;;16.50;99.90;;;;;;4971249;28;20122;-78
2023/07/29 02:54:30;;;;;;;1.10;0.90;;;16.60;99.90;;;;;;4956405;28;20093;-78
2023/07/29 02:56:56;;;;;;;2.20;1.50;;;16.60;99.90;;;;;;4955004;28;20071;-78
2023/07/29 02:59:21;;;;;;;2.05;1.02;;;16.40;99.90;;;;;;4952934;28;20133;-77
2023/07/29 03:01:47;;;;;;;1.10;0.95;;;16.40;99.90;;;;;;4953089;28;20472;-78
2023/07/29 03:04:13;;;;;;;1.25;1.15;;;16.40;99.90;;;;;;4970284;28;20034;-78
2023/07/29 03:06:38;;;;;;;1.10;1.00;;;16.40;99.90;;;;;;4952711;28;20035;-78
2023/07/29 03:09:04;;;;;;;3.38;1.20;;;16.40;99.90;;;;;;4969813;28;20035;-78
2023/07/29 03:11:31;;;;;;;0.95;0.90;;;16.40;99.90;;;;;;4952707;28;20484;-78
2023/07/29 03:13:56;;;;;;;4.15;0.73;;;16.50;99.90;;;;;;4970274;28;20361;-77
2023/07/29 03:16:22;;;;;;;1.00;1.00;;;16.40;99.90;;;;;;4953479;28;20035;-78
2023/07/29 03:18:49;;;;;;;0.80;0.80;;;16.40;99.90;;;;;;4956576;28;20054;-78
2023/07/29 03:21:14;;;;;;;1.48;0.88;;;16.30;99.90;;;;;;4974326;28;20054;-78
2023/07/29 03:23:40;;;;;;;1.05;1.00;;;16.30;99.90;;;;;;4956386;28;20061;-78
2023/07/29 03:26:10;;;;;;;1.45;1.17;;;16.30;99.90;;;;;;4956525;28;20365;-78
2023/07/29 03:28:37;;;;;;;1.38;1.27;;;16.20;99.90;;;;;;4956438;28;20101;-77
2023/07/29 03:31:03;;;;;;;1.10;1.00;;;17.00;99.90;;;;;;4974028;28;20019;-77
2023/07/29 03:33:29;;;;;;;1.52;1.42;;;16.30;99.90;;;;;;4956586;28;20023;-77
2023/07/29 03:35:55;;;;;;;1.73;1.13;;;16.30;99.90;;;;;;4956389;28;20022;-78
2023/07/29 03:38:20;;;;;;;1.30;1.20;;;16.30;99.90;;;;;;4973398;28;20034;-78
2023/07/29 03:40:47;;;;;;;0.93;0.93;;;16.30;99.90;;;;;;4956389;28;20042;-78
2023/07/29 03:43:13;;;;;;;4.00;1.30;;;16.40;99.90;;;;;;4971895;28;20026;-78
2023/07/29 03:45:40;;;;;;;2.55;1.33;;;16.30;99.90;;;;;;4973466;28;20023;-77
2023/07/29 03:48:05;;;;;;;1.63;1.15;;;16.30;99.90;;;;;;4956256;28;20202;-78
2023/07/29 03:50:33;;;;;;;3.67;1.73;;;16.10;99.90;;;;;;4956279;28;20522;-78
2023/07/29 03:52:59;;;;;;;1.95;1.73;;;16.10;99.90;;;;;;4973418;28;20058;-78
2023/07/29 03:55:25;;;;;;;2.00;1.27;;;16.00;99.90;;;;;;4956055;28;20061;-78
2023/07/29 03:57:50;;;;;;;1.40;1.30;;;15.90;99.90;;;;;;4956167;28;20116;-78
2023/07/29 04:00:16;;;;;;;2.60;1.35;;;15.90;99.90;;;;;;4955919;28;20085;-78
2023/07/29 04:02:42;;;;;;;1.63;1.52;;;15.90;99.90;;;;;;4955806;28;21218;-78
2023/07/29 04:05:08;;;;;;;1.80;0.85;;;15.90;99.90;;;;;;4973524;28;20356;-78
2023/07/29 04:07:37;;;;;;;1.35;1.25;;;15.90;99.90;;;;;;4955865;28;20023;-78
2023/07/29 04:10:04;;;;;;;1.20;1.13;;;16.00;99.90;;;;;;4973285;28;20058;-78
2023/07/29 04:12:30;;;;;;;1.35;1.02;;;15.90;99.90;;;;;;4955800;28;20104;-78
2023/07/29 04:14:55;;;;;;;1.00;1.00;;;15.90;99.90;;;;;;4955910;28;20027;-77
2023/07/29 04:17:21;;;;;;;1.90;1.40;;;15.90;99.90;;;;;;4955838;28;20030;-78
2023/07/29 04:19:47;;;;;;;3.00;1.45;;;15.90;99.90;;;;;;4955636;28;20035;-77
2023/07/29 04:22:12;;;;;;;1.10;1.00;;;15.90;99.90;;;;;;4955103;28;20018;-78
2023/07/29 04:24:38;;;;;;;1.73;1.20;;;15.90;99.90;;;;;;4955442;28;20483;-78
2023/07/29 04:27:04;;;;;;;3.30;1.25;;;15.90;99.90;;;;;;4955457;28;20613;-77
2023/07/29 04:29:30;;;;;;;1.50;1.25;;;15.90;99.90;;;;;;4954370;28;20050;-78
2023/07/29 04:31:55;;;;;;;5.88;1.50;;;16.00;99.90;;;;;;4955567;28;20105;-78
2023/07/29 04:34:21;;;;;;;1.60;1.35;;;16.00;99.90;;;;;;4973243;28;20093;-78
2023/07/29 04:36:47;;;;;;;1.00;0.75;;;16.00;99.90;;;;;;4972879;28;20050;-78
2023/07/29 04:39:13;;;;;;;1.42;1.38;;;16.10;99.90;;;;;;4955025;28;20093;-78
2023/07/29 04:41:39;;;;;;;0.65;0.65;;;16.00;99.90;;;;;;4955097;28;20027;-78
2023/07/29 04:44:05;;;;;;;2.28;1.63;;;16.10;99.90;;;;;;4972691;28;20108;-79
2023/07/29 04:46:30;;;;;;;1.75;1.15;;;16.10;99.90;;;;;;4972733;28;20467;-77
2023/07/29 04:48:56;;;;;;;1.98;0.95;;;16.30;99.90;;;;;;4972796;28;20618;-78
2023/07/29 04:51:22;;;;;;;1.20;1.10;;;16.50;99.90;;;;;;4955101;28;20033;-78
2023/07/29 04:53:48;;;;;;;0.80;0.73;;;16.60;99.90;;;;;;4954965;28;20656;-78
2023/07/29 04:56:13;;;;;;;3.17;0.90;;;16.70;99.90;;;;;;4972473;28;20043;-78
2023/07/29 04:58:39;;;;;;;0.93;0.93;;;16.60;99.90;;;;;;4954631;28;20375;-78
2023/07/29 05:01:05;;;;;;;1.60;1.48;;;16.70;99.90;;;;;;4954942;28;20031;-78
2023/07/29 05:03:31;;;;;;;4.07;1.55;;;16.80;99.90;;;;;;4955226;28;20061;-78
2023/07/29 05:05:59;;;;;;;1.00;1.00;;;16.80;99.90;;;;;;4954824;28;20118;-78
2023/07/29 05:08:25;;;;;;;1.55;1.20;;;17.00;99.90;;;;;;4970258;28;20030;-79
2023/07/29 05:10:52;;;;;;;1.58;1.05;;;17.10;99.90;;;;;;4972084;28;20101;-78
2023/07/29 05:13:18;;;;;;;0.77;0.77;;;17.20;99.90;;;;;;4970641;28;20026;-78
2023/07/29 05:15:43;;;;;;;4.15;1.77;;;17.30;99.90;;;;;;4954347;28;20030;-77
2023/07/29 05:18:09;;;;;;;2.95;1.20;;;17.60;99.90;;;;;;4972018;28;20030;-78
2023/07/29 05:20:35;;;;;;;1.65;1.52;;;17.90;99.90;;;;;;4954514;28;20035;-78
2023/07/29 05:23:00;;;;;;;2.08;1.40;;;18.30;99.90;;;;;;4971343;28;20494;-77
2023/07/29 05:25:26;;;;;;;1.20;1.17;;;18.70;99.90;;;;;;4954337;28;20127;-78
2023/07/29 05:27:52;;;;;;;2.97;1.13;;;19.00;99.90;;;;;;4954155;28;20030;-78
2023/07/29 05:30:18;;;;;;;2.35;1.08;;;19.10;99.90;;;;;;4954046;28;20042;-78
2023/07/29 05:32:44;;;;;;;1.60;1.50;;;19.30;99.90;;;;;;4954131;28;20026;-79
2023/07/29 05:35:10;;;;;;;3.80;1.30;;;19.30;99.90;;;;;;4954128;28;20030;-78
2023/07/29 05:37:39;;;;;;;1.83;1.10;;;19.20;99.90;;;;;;4953790;28;20023;-78
2023/07/29 05:40:07;;;;;;;2.03;0.90;;;19.20;99.90;;;;;;4971478;28;20035;-78
2023/07/29 05:42:33;;;;;;;4.47;1.35;;;19.20;99.90;;;;;;4971722;28;20018;-78
2023/07/29 05:44:59;;;;;;;0.95;0.90;;;19.30;99.90;;;;;;4954714;28;20125;-78
2023/07/29 05:47:25;;;;;;;1.23;1.10;;;19.40;99.90;;;;;;4977632;28;20077;-78
2023/07/29 05:49:51;;;;;;;1.55;1.15;;;19.60;99.90;;;;;;4975065;28;20025;-78
2023/07/29 05:52:16;;;;;;;0.80;0.80;;;19.60;99.90;;;;;;4953672;28;20058;-78
2023/07/29 05:54:42;;;;;;;3.47;1.27;;;19.80;99.90;;;;;;4971100;28;20038;-78
2023/07/29 05:57:09;;;;;;;2.10;1.30;;;19.60;99.90;;;;;;4953755;28;20061;-78
2023/07/29 05:59:35;;;;;;;2.72;1.27;;;19.70;99.90;;;;;;4971301;28;20038;-78
2023/07/29 06:02:01;;;;;;;2.08;1.27;;;19.90;99.90;;;;;;4953803;28;20179;-78
2023/07/29 06:04:27;;;;;;;1.95;1.55;;;20.00;99.90;;;;;;4971119;28;20033;-78
2023/07/29 06:06:52;;;;;;;1.80;1.17;;;20.00;99.90;;;;;;4971194;28;20019;-77
2023/07/29 06:09:18;;;;;;;1.40;1.30;;;20.40;99.90;;;;;;4970479;28;20026;-78
2023/07/29 06:11:43;;;;;;;1.92;1.77;;;20.20;99.90;;;;;;4953339;28;20029;-78
2023/07/29 06:14:09;;;;;;;2.25;1.15;;;20.30;99.90;;;;;;4970741;28;20109;-78
2023/07/29 06:16:35;;;;;;;4.38;1.52;;;20.30;99.90;;;;;;4953454;28;20037;-78
2023/07/29 06:19:01;;;;;;;2.00;1.77;;;20.50;99.90;;;;;;4953285;28;20529;-78
2023/07/29 06:21:26;;;;;;;4.78;1.77;;;20.60;99.90;;;;;;4953650;28;20472;-79
2023/07/29 06:23:52;;;;;;;2.88;1.80;;;20.80;99.90;;;;;;4970507;28;20121;-78
2023/07/29 06:26:18;;;;;;;2.17;1.42;;;20.70;99.90;;;;;;4953308;28;20034;-78
2023/07/29 06:28:44;;;;;;;2.50;1.23;;;20.40;99.90;;;;;;4953177;28;20046;-78
2023/07/29 06:31:09;;;;;;;2.50;1.92;;;20.70;99.90;;;;;;4953283;28;20082;-78
2023/07/29 06:33:35;;;;;;;2.92;2.10;;;20.70;99.90;;;;;;4970519;28;20491;-78
2023/07/29 06:36:00;;;;;;;6.57;2.00;;;20.70;99.90;;;;;;4970734;28;20350;-78
2023/07/29 06:38:26;;;;;;;2.65;1.48;;;20.70;99.90;;;;;;4952938;28;20038;-78
2023/07/29 06:40:52;;;;;;;1.65;1.50;;;20.90;99.90;;;;;;4970830;28;20083;-78
2023/07/29 06:43:18;;;;;;;1.95;1.60;;;21.00;99.90;;;;;;4953223;28;20027;-79
2023/07/29 06:45:43;;;;;;;1.33;1.15;;;21.00;99.90;;;;;;4953153;28;20412;-77
2023/07/29 06:48:09;;;;;;;4.88;1.33;;;20.90;99.90;;;;;;4952966;28;20031;-78
2023/07/29 06:50:34;;;;;;;4.07;1.90;;;21.10;99.90;;;;;;4953085;28;20058;-78
2023/07/29 06:53:00;;;;;;;1.63;1.48;;;21.20;99.90;;;;;;4952355;28;20097;-78
2023/07/29 06:55:26;;;;;;;1.52;1.33;;;21.40;99.90;;;;;;4953030;28;20387;-78
2023/07/29 06:57:51;;;;;;;1.13;0.90;;;21.30;99.90;;;;;;4953167;28;20527;-78
2023/07/29 07:00:17;;;;;;;1.20;1.10;;;21.40;99.90;;;;;;4952799;28;20542;-78
2023/07/29 07:02:43;;;;;;;1.42;0.93;;;21.60;99.90;;;;;;4970304;28;20027;-78
2023/07/29 07:05:09;;;;;;;1.75;1.40;;;21.70;99.90;;;;;;4953089;28;20527;-78
2023/07/29 07:07:34;;;;;;;0.70;0.70;;;21.80;99.90;;;;;;4952372;28;20388;-78
2023/07/29 07:10:00;;;;;;;0.70;0.57;;;21.90;99.90;;;;;;4952857;28;20404;-78
2023/07/29 07:12:26;;;;;;;0.80;0.80;;;22.10;99.90;;;;;;4952794;28;20023;-78
2023/07/29 07:14:51;;;;;;;1.65;0.93;;;22.30;99.90;;;;;;4952864;28;20023;-78
2023/07/29 07:17:18;;;;;;;2.38;0.77;;;22.50;99.90;;;;;;4952713;28;20630;-78
2023/07/29 07:19:43;;;;;;;0.95;0.88;;;23.60;99.90;;;;;;4952752;28;20031;-77
2023/07/29 07:22:09;;;;;;;1.30;1.20;;;23.40;99.90;;;;;;4969711;28;20023;-78
2023/07/29 07:24:34;;;;;;;1.05;0.93;;;23.20;99.90;;;;;;4952480;28;20058;-78
2023/07/29 07:27:00;;;;;;;1.17;1.00;;;23.20;99.90;;;;;;4952667;28;20034;-78
2023/07/29 07:29:26;;;;;;;2.60;1.50;;;24.00;99.90;;;;;;4952703;28;20101;-78
2023/07/29 07:31:53;;;;;;;1.33;1.00;;;24.50;99.90;;;;;;4970520;28;20468;-78
2023/07/29 07:34:19;;;;;;;1.10;1.00;;;24.80;99.90;;;;;;4952844;28;20507;-78
2023/07/29 07:36:45;;;;;;;1.00;0.95;;;25.20;99.90;;;;;;4970173;28;20153;-78
2023/07/29 07:39:11;;;;;;;1.85;1.20;;;25.40;99.90;;;;;;4952177;28;20057;-78
2023/07/29 07:41:37;;;;;;;2.67;1.13;;;25.00;99.90;;;;;;4952376;28;20488;-77
2023/07/29 07:44:02;;;;;;;0.70;0.70;;;24.80;99.90;;;;;;4969910;28;20038;-78
2023/07/29 07:46:29;;;;;;;1.00;1.00;;;25.20;99.90;;;;;;4952500;28;20279;-78
2023/07/29 07:48:54;;;;;;;1.67;1.00;;;25.40;99.90;;;;;;4970044;28;20026;-78
2023/07/29 07:51:20;;;;;;;1.40;1.30;;;25.20;99.90;;;;;;4969952;28;20023;-78
2023/07/29 07:53:46;;;;;;;0.93;0.93;;;24.70;99.90;;;;;;4952119;28;20052;-78
2023/07/29 07:56:12;;;;;;;3.05;1.10;;;24.20;99.90;;;;;;4952445;28;20031;-78
2023/07/29 07:58:38;;;;;;;1.60;1.08;;;24.10;99.90;;;;;;4969485;28;20015;-78
2023/07/29 08:01:05;;;;;;;1.92;0.70;;;24.30;99.90;;;;;;4951984;28;20118;-78
2023/07/29 08:03:31;;;;;;;2.28;1.00;;;24.60;99.90;;;;;;4953150;28;20049;-78
2023/07/29 08:05:57;;;;;;;1.52;1.17;;;24.70;99.90;;;;;;4955900;28;20440;-78
2023/07/29 08:08:22;;;;;;;0.93;0.80;;;25.00;99.90;;;;;;4972986;28;20496;-78
2023/07/29 08:10:48;;;;;;;1.73;1.25;;;25.00;99.90;;;;;;4973388;28;20034;-77
2023/07/29 08:13:13;;;;;;;0.80;0.70;;;25.20;99.90;;;;;;4973156;28;20027;-78
2023/07/29 08:15:40;;;;;;;1.23;1.10;;;25.40;99.90;;;;;;4972626;28;20360;-79
2023/07/29 08:18:06;;;;;;;1.02;1.02;;;25.60;99.90;;;;;;4955409;28;20572;-78
2023/07/29 08:20:32;;;;;;;1.33;1.23;;;25.40;99.90;;;;;;4955467;28;20042;-78
2023/07/29 08:22:58;;;;;;;2.53;1.55;;;25.50;99.90;;;;;;4955244;28;20033;-78
2023/07/29 08:25:24;;;;;;;0.90;0.90;;;25.50;99.90;;;;;;4955483;28;20031;-77
2023/07/29 08:27:49;;;;;;;0.73;0.40;;;25.70;99.90;;;;;;4955602;28;20491;-78
2023/07/29 08:30:16;;;;;;;1.52;1.33;;;25.70;99.90;;;;;;4955600;28;20031;-79
2023/07/29 08:32:41;;;;;;;8.68;2.47;;;26.00;99.90;;;;;;4972665;28;20019;-77
2023/07/29 08:35:07;;;;;;;1.10;0.98;;;25.80;99.90;;;;;;4972982;28;20121;-78
2023/07/29 08:37:33;;;;;;;2.45;1.08;;;25.80;99.90;;;;;;4974271;28;20027;-78
2023/07/29 08:39:59;;;;;;;1.00;0.90;;;25.70;99.90;;;;;;4981930;28;20460;-78
2023/07/29 08:42:29;;;;;;;1.00;1.00;;;26.00;99.90;;;;;;4977357;28;20023;-78
2023/07/29 08:44:55;;;;;;;1.73;1.02;;;26.90;99.90;;;;;;4972459;28;20476;-78
2023/07/29 08:47:21;;;;;;;1.10;1.00;;;27.10;99.90;;;;;;4954926;28;20023;-78
2023/07/29 08:49:50;;;;;;;1.38;0.90;;;26.50;99.90;;;;;;4955146;28;20030;-78
2023/07/29 08:52:16;;;;;;;0.70;0.70;;;25.80;99.90;;;;;;4954604;28;20057;-78
2023/07/29 08:54:42;;;;;;;2.25;1.45;;;25.50;99.90;;;;;;4971998;28;20149;-78
2023/07/29 08:57:08;;;;;;;1.38;1.27;;;25.20;99.90;;;;;;4954741;28;20523;-77
2023/07/29 08:59:33;;;;;;;3.83;1.33;;;25.80;99.90;;;;;;4955065;28;20038;-78
2023/07/29 09:01:59;;;;;;;3.55;1.25;;;26.40;99.90;;;;;;4972175;28;20026;-78
2023/07/29 09:04:25;;;;;;;1.40;1.30;;;27.30;98.90;;;;;;4954920;28;20450;-79
2023/07/29 09:06:51;;;;;;;1.27;1.05;;;28.20;98.70;;;;;;4971916;28;20136;-78
2023/07/29 09:09:17;;;;;;;2.15;0.88;;;27.80;98.00;;;;;;4972294;28;20546;-78
2023/07/29 09:11:43;;;;;;;2.20;2.00;;;27.30;98.30;;;;;;4954430;28;20026;-78
2023/07/29 09:14:10;;;;;;;1.25;1.15;;;26.50;99.70;;;;;;4971607;28;20130;-79
2023/07/29 09:16:36;;;;;;;0.93;0.90;;;26.20;99.90;;;;;;4972417;28;20121;-78
2023/07/29 09:19:03;;;;;;;1.05;0.93;;;26.10;99.90;;;;;;4954446;28;20042;-78
2023/07/29 09:21:29;;;;;;;3.28;0.80;;;25.70;99.90;;;;;;4954363;28;20030;-78
2023/07/29 09:23:56;;;;;;;1.85;1.20;;;26.00;99.90;;;;;;4954190;28;20050;-78
2023/07/29 09:26:28;;;;;;;1.92;1.25;;;26.60;99.90;;;;;;4954361;28;20037;-78
2023/07/29 09:28:57;;;;;;;2.10;1.20;;;27.50;99.00;;;;;;4971697;28;20062;-78
2023/07/29 09:31:25;;;;;;;2.15;1.35;;;27.40;97.60;;;;;;4971641;28;20344;-78
2023/07/29 09:33:59;;;;;;;1.60;1.30;;;27.20;98.60;;;;;;4971586;28;20037;-78
2023/07/29 09:36:25;;;;;;;1.08;1.00;;;27.20;97.80;;;;;;4971822;28;20046;-78
2023/07/29 09:38:55;;;;;;;1.60;1.38;;;26.70;98.30;;;;;;4953650;28;20034;-78
2023/07/29 09:41:26;;;;;;;0.90;0.90;;;26.40;99.20;;;;;;4954117;28;20035;-78
2023/07/29 09:43:57;;;;;;;3.53;1.10;;;26.90;99.70;;;;;;4954067;28;20030;-78
2023/07/29 09:46:25;;;;;;;4.57;1.90;;;27.60;99.70;;;;;;4971294;28;20027;-78
2023/07/29 09:48:54;;;;;;;1.35;1.25;;;27.30;97.40;;;;;;4971280;28;20254;-78
2023/07/29 09:51:20;;;;;;;2.10;0.90;;;26.80;98.30;;;;;;4953955;28;20019;-78
2023/07/29 09:53:47;;;;;;;3.00;1.83;;;27.00;98.40;;;;;;4953645;28;20023;-78
2023/07/29 09:56:15;;;;;;;1.00;1.00;;;26.90;98.10;;;;;;4971220;28;20492;-78
2023/07/29 09:58:45;;;;;;;1.45;1.08;;;26.30;99.60;;;;;;4971101;28;20022;-78
2023/07/29 10:01:11;;;;;;;2.28;1.40;;;26.30;98.40;;;;;;4971155;28;20054;-79
2023/07/29 10:03:37;;;;;;;1.35;1.23;;;26.20;98.30;;;;;;4970929;28;20031;-78
2023/07/29 10:06:04;;;;;;;1.20;0.77;;;26.30;99.90;;;;;;4971092;28;20107;-78
2023/07/29 10:08:38;;;;;;;1.55;1.40;;;26.20;99.00;;;;;;4970364;28;20027;-78
2023/07/29 10:11:06;;;;;;;1.50;1.40;;;26.10;99.80;;;;;;4953911;28;20039;-79
2023/07/29 10:13:33;;;;;;;1.25;1.15;;;26.40;99.10;;;;;;4953613;28;20060;-78
2023/07/29 10:16:02;;;;;;;3.67;1.80;;;27.00;98.40;;;;;;4971083;28;20045;-78
2023/07/29 10:18:28;;;;;;;2.58;0.85;;;27.10;97.30;;;;;;4953269;28;20030;-78
2023/07/29 10:20:56;;;;;;;2.15;1.48;;;27.30;97.40;;;;;;4953165;28;20039;-78
2023/07/29 10:23:24;;;;;;;3.65;2.42;;;27.00;97.70;;;;;;4970416;28;20117;-78
2023/07/29 10:26:18;;;;;;;1.55;1.42;;;27.50;98.00;;;;;;4952721;28;20141;-78
2023/07/29 10:28:47;;;;;;;3.53;1.50;;;27.90;95.80;;;;;;4950671;28;20038;-77
2023/07/29 10:31:15;;;;;;;;;;;27.40;95.30;;;;;;4953986;28;20027;-78
2023/07/29 10:33:41;;;;;;;1.83;1.63;;;27.70;95.80;;;;;;4953332;28;20008;-78
2023/07/29 10:36:08;;;;;;;2.33;1.35;;;28.10;95.30;;;;;;4953177;28;20030;-78
2023/07/29 10:38:34;;;;;;;1.52;1.20;;;27.80;94.40;;;;;;4970139;28;20026;-78
2023/07/29 10:41:00;;;;;;;1.60;1.50;;;27.50;95.40;;;;;;4970848;28;20027;-78
2023/07/29 10:43:38;;;;;;;1.30;1.20;;;27.40;95.20;;;;;;4970390;28;20046;-77
2023/07/29 10:46:21;;;;;;;1.43;1.33;;;27.40;94.90;;;;;;4953123;28;20109;-78
2023/07/29 10:48:50;;;;;;;1.83;1.42;;;27.30;95.40;;;;;;4970642;28;20101;-78
2023/07/29 10:51:22;;;;;;;2.05;1.88;;;27.60;96.50;;;;;;4953053;28;20093;-78
2023/07/29 10:53:48;;;;;;;1.48;1.35;;;27.00;95.10;;;;;;4952632;28;20031;-78
2023/07/29 10:56:26;;;;;;;1.83;1.45;;;26.70;94.70;;;;;;4953031;28;20030;-78
2023/07/29 10:58:51;;;;;;;2.92;1.40;;;26.70;94.70;;;;;;4969150;28;20019;-78
2023/07/29 11:01:28;;;;;;;1.35;1.25;;;26.80;94.60;;;;;;4952990;28;20031;-78
2023/07/29 11:04:26;;;;;;;1.77;1.67;;;28.00;94.50;;;;;;4952780;28;20443;-78
2023/07/29 11:07:04;;;;;;;1.27;1.20;;;28.30;93.20;;;;;;4952828;28;20027;-78
2023/07/29 11:09:48;;;;;;;4.00;1.27;;;28.20;91.30;;;;;;4953192;28;20027;-78
2023/07/29 11:12:33;;;;;;;3.83;1.98;;;27.90;92.20;;;;;;4952748;28;20461;-78
2023/07/29 11:15:21;;;;;;;4.03;1.50;;;27.20;93.20;;;;;;4952800;28;20066;-77
2023/07/29 11:17:54;;;;;;;2.10;1.45;;;27.40;92.40;;;;;;4953029;28;20027;-79
2023/07/29 11:20:22;;;;;;;1.25;1.15;;;27.70;92.80;;;;;;4952578;28;20046;-78
2023/07/29 11:22:48;;;;;;;2.03;1.60;;;27.20;93.10;;;;;;4952805;28;20031;-78
2023/07/29 11:25:16;;;;;;;2.60;1.50;;;26.90;93.10;;;;;;4953376;28;20035;-77
2023/07/29 11:27:42;;;;;;;3.92;1.80;;;26.30;93.30;;;;;;4961360;28;20034;-78
2023/07/29 11:30:10;;;;;;;1.88;1.77;;;26.20;93.60;;;;;;4961575;28;20093;-77
2023/07/29 11:32:37;;;;;;;2.75;1.92;;;26.40;93.40;;;;;;4970166;28;20018;-78
2023/07/29 11:35:04;;;;;;;4.90;1.45;;;26.40;93.70;;;;;;4970055;28;20468;-78
2023/07/29 11:37:29;;;;;;;1.65;1.40;;;26.40;93.50;;;;;;4952893;28;20030;-78
2023/07/29 11:39:55;;;;;;;1.70;1.40;;;26.40;92.60;;;;;;4973720;28;20030;-78
2023/07/29 11:42:21;;;;;;;2.40;1.50;;;26.30;92.80;;;;;;4973818;28;20329;-78
2023/07/29 11:44:46;;;;;;;1.73;1.60;;;26.20;92.40;;;;;;4973852;28;20023;-78
2023/07/29 11:47:13;;;;;;;4.30;1.70;;;26.30;92.40;;;;;;4956271;28;20495;-78
2023/07/29 11:49:39;;;;;;;1.50;1.40;;;26.50;94.00;;;;;;4973458;28;20106;-78
2023/07/29 11:52:09;;;;;;;2.95;1.42;;;26.60;91.10;;;;;;4973596;28;20037;-78
2023/07/29 11:54:37;;;;;;;3.80;1.38;;;26.80;92.30;;;;;;4956010;28;20074;-78
2023/07/29 11:57:06;;;;;;;2.72;1.35;;;27.00;90.10;;;;;;4955968;28;20488;-78
2023/07/29 11:59:33;;;;;;;1.25;1.15;;;26.70;89.00;;;;;;4973643;28;20042;-78
2023/07/29 12:02:00;;;;;;;1.30;1.20;;;26.70;90.20;;;;;;4956060;28;20073;-78
2023/07/29 12:04:26;;;;;;;1.30;1.20;;;27.00;89.50;;;;;;4956127;28;20199;-78
2023/07/29 12:06:51;;;;;;;2.05;1.40;;;26.90;90.20;;;;;;4973252;28;20165;-78
2023/07/29 12:09:18;;;;;;;1.50;1.30;;;27.10;89.10;;;;;;4973213;28;20274;-78
2023/07/29 12:11:44;;;;;;;1.35;1.25;;;27.20;89.10;;;;;;4955612;28;20027;-78
2023/07/29 12:14:10;;;;;;;2.10;1.40;;;27.20;87.90;;;;;;4955619;28;20130;-78
2023/07/29 12:16:43;;;;;;;1.20;1.10;;;27.30;90.20;;;;;;4955792;28;20541;-77
2023/07/29 12:19:11;;;;;;;1.70;1.60;;;26.80;89.50;;;;;;4973151;28;20125;-78
2023/07/29 12:21:37;;;;;;;1.50;1.40;;;26.90;89.00;;;;;;4955551;28;20088;-78
2023/07/29 12:24:03;;;;;;;2.28;1.70;;;26.60;88.90;;;;;;4955669;28;20440;-78
2023/07/29 12:26:29;;;;;;;2.80;1.50;;;26.40;90.50;;;;;;4973034;28;20688;-78
2023/07/29 12:28:56;;;;;;;1.30;1.20;;;26.30;90.50;;;;;;4971438;28;20078;-78
2023/07/29 12:31:27;;;;;;;3.00;1.50;;;25.90;90.10;;;;;;4955407;28;20042;-78
2023/07/29 12:33:56;;;;;;;1.45;1.35;;;25.80;90.30;;;;;;4972857;28;20475;-78
2023/07/29 12:36:22;;;;;;;1.95;1.50;;;26.00;90.60;;;;;;4972631;28;20031;-77
2023/07/29 12:38:47;;;;;;;2.30;1.52;;;26.00;90.70;;;;;;4972451;28;20555;-78
2023/07/29 12:41:13;;;;;;;1.20;1.10;;;26.00;90.80;;;;;;4955443;28;20031;-78
2023/07/29 12:43:39;;;;;;;1.20;1.10;;;26.20;91.30;;;;;;4972615;28;20110;-78
2023/07/29 12:46:04;;;;;;;1.55;1.45;;;26.10;91.50;;;;;;4955282;28;20149;-77
2023/07/29 12:48:30;;;;;;;3.58;1.98;;;26.00;91.80;;;;;;4972290;28;20034;-78